LVCTT SAAR-SAAR
Flight info
| Callsign | LVCTT |
|---|---|
| Flight time | 0h 42m |
| Altitude | 3000 |
| Route | DCT |
| Aircraft | PA34/L-SDG/C |
Departure
| Time | 2026-05-04 23:40 |
|---|---|
| Airport | Rosario Islas Malvinas International Airport (SAAR) |
Arrival
| Time | 2026-05-05 00:23 |
|---|---|
| Airport | Rosario Islas Malvinas International Airport (SAAR) |
| Time | Latitude | Longitude | Altitude | Speed | Heading |
|---|---|---|---|---|---|
| 2026-05-04 23:27 | -32.91812 | -60.78197 | 89 ft | 0 kts | 21° |
| 2026-05-04 23:37 | -32.91808 | -60.78196 | 89 ft | 5 kts | 7° |
| 2026-05-04 23:37 | -32.91772 | -60.78245 | 90 ft | 10 kts | 346° |
| 2026-05-04 23:38 | -32.91743 | -60.78302 | 89 ft | 10 kts | 253° |
| 2026-05-04 23:38 | -32.91762 | -60.78389 | 89 ft | 11 kts | 257° |
| 2026-05-04 23:38 | -32.91781 | -60.78484 | 89 ft | 12 kts | 257° |
| 2026-05-04 23:38 | -32.91793 | -60.78585 | 89 ft | 12 kts | 315° |
| 2026-05-04 23:39 | -32.91756 | -60.78633 | 89 ft | 0 kts | 309° |
| 2026-05-04 23:39 | -32.91723 | -60.78676 | 89 ft | 17 kts | 314° |
| 2026-05-04 23:39 | -32.91621 | -60.78761 | 90 ft | 17 kts | 15° |
| 2026-05-04 23:40 | -32.91450 | -60.78715 | 91 ft | 52 kts | 10° |
| 2026-05-04 23:40 | -32.90866 | -60.78581 | 175 ft | 105 kts | 11° |
| 2026-05-04 23:40 | -32.90084 | -60.78388 | 480 ft | 121 kts | 13° |
| 2026-05-04 23:40 | -32.89210 | -60.78189 | 757 ft | 131 kts | 10° |
| 2026-05-04 23:41 | -32.88306 | -60.78019 | 1160 ft | 130 kts | 9° |
| 2026-05-04 23:41 | -32.87468 | -60.77824 | 1411 ft | 114 kts | 10° |
| 2026-05-04 23:41 | -32.86760 | -60.77578 | 1521 ft | 99 kts | 15° |
| 2026-05-04 23:41 | -32.86112 | -60.77463 | 1567 ft | 92 kts | 349° |
| 2026-05-04 23:42 | -32.85571 | -60.77805 | 1569 ft | 91 kts | 310° |
| 2026-05-04 23:42 | -32.85324 | -60.78494 | 1540 ft | 92 kts | 258° |
| 2026-05-04 23:42 | -32.85550 | -60.79142 | 1563 ft | 85 kts | 225° |
| 2026-05-04 23:42 | -32.85939 | -60.79704 | 1510 ft | 88 kts | 220° |
| 2026-05-04 23:43 | -32.86417 | -60.80136 | 1479 ft | 86 kts | 194° |
| 2026-05-04 23:43 | -32.87016 | -60.80426 | 1412 ft | 92 kts | 187° |
| 2026-05-04 23:43 | -32.87661 | -60.80590 | 1440 ft | 110 kts | 182° |
| 2026-05-04 23:43 | -32.88513 | -60.80559 | 1617 ft | 131 kts | 176° |
| 2026-05-04 23:44 | -32.89451 | -60.80514 | 1922 ft | 133 kts | 175° |
| 2026-05-04 23:44 | -32.90420 | -60.80444 | 2074 ft | 144 kts | 177° |
| 2026-05-04 23:44 | -32.91409 | -60.80512 | 2414 ft | 138 kts | 188° |
| 2026-05-04 23:44 | -32.92424 | -60.80623 | 2460 ft | 153 kts | 188° |
| 2026-05-04 23:45 | -32.93503 | -60.80727 | 2607 ft | 153 kts | 186° |
| 2026-05-04 23:45 | -32.94462 | -60.80623 | 2659 ft | 131 kts | 167° |
| 2026-05-04 23:45 | -32.95010 | -60.79790 | 1998 ft | 135 kts | 109° |
| 2026-05-04 23:45 | -32.94488 | -60.78978 | 1330 ft | 141 kts | 9° |
| 2026-05-04 23:46 | -32.93521 | -60.79101 | 748 ft | 135 kts | 0° |
| 2026-05-04 23:46 | -32.92644 | -60.78993 | 427 ft | 115 kts | 10° |
| 2026-05-04 23:46 | -32.91862 | -60.78848 | 275 ft | 110 kts | 24° |
| 2026-05-04 23:46 | -32.91133 | -60.78644 | 156 ft | 105 kts | 13° |
| 2026-05-04 23:47 | -32.90444 | -60.78504 | 112 ft | 94 kts | 11° |
| 2026-05-04 23:47 | -32.89840 | -60.78376 | 113 ft | 85 kts | 14° |
| 2026-05-04 23:47 | -32.89227 | -60.78208 | 168 ft | 104 kts | 16° |
| 2026-05-04 23:47 | -32.88451 | -60.77963 | 424 ft | 124 kts | 14° |
| 2026-05-04 23:48 | -32.87564 | -60.77789 | 653 ft | 137 kts | 11° |
| 2026-05-04 23:48 | -32.86616 | -60.77544 | 878 ft | 142 kts | 13° |
| 2026-05-04 23:48 | -32.85638 | -60.77292 | 1107 ft | 144 kts | 13° |
| 2026-05-04 23:48 | -32.84645 | -60.77037 | 1335 ft | 146 kts | 13° |
| 2026-05-04 23:49 | -32.83652 | -60.76785 | 1560 ft | 146 kts | 13° |
| 2026-05-04 23:49 | -32.82744 | -60.76320 | 1745 ft | 144 kts | 47° |
| 2026-05-04 23:49 | -32.82553 | -60.75199 | 1916 ft | 146 kts | 104° |
| 2026-05-04 23:49 | -32.83267 | -60.74388 | 2085 ft | 146 kts | 162° |
| 2026-05-04 23:50 | -32.84249 | -60.74177 | 2293 ft | 142 kts | 187° |
| 2026-05-04 23:50 | -32.85145 | -60.74624 | 2496 ft | 140 kts | 210° |
| 2026-05-04 23:50 | -32.86022 | -60.75117 | 2720 ft | 139 kts | 209° |
| 2026-05-04 23:50 | -32.86888 | -60.75624 | 2937 ft | 139 kts | 213° |
| 2026-05-04 23:51 | -32.87751 | -60.76252 | 2973 ft | 153 kts | 215° |
| 2026-05-04 23:51 | -32.88665 | -60.76932 | 2975 ft | 160 kts | 217° |
| 2026-05-04 23:51 | -32.89585 | -60.77707 | 2976 ft | 164 kts | 219° |
| 2026-05-04 23:51 | -32.90516 | -60.78498 | 2975 ft | 166 kts | 219° |
| 2026-05-04 23:52 | -32.91456 | -60.79298 | 2975 ft | 166 kts | 219° |
| 2026-05-04 23:52 | -32.92397 | -60.80099 | 2975 ft | 166 kts | 219° |
| 2026-05-04 23:52 | -32.93339 | -60.80901 | 2976 ft | 166 kts | 219° |
| 2026-05-04 23:52 | -32.94278 | -60.81705 | 2974 ft | 165 kts | 219° |
| 2026-05-04 23:53 | -32.94808 | -60.82818 | 2946 ft | 154 kts | 269° |
| 2026-05-04 23:53 | -32.94911 | -60.84070 | 2956 ft | 156 kts | 257° |
| 2026-05-04 23:53 | -32.95195 | -60.84860 | 2955 ft | 159 kts | 244° |
| 2026-05-04 23:53 | -32.95850 | -60.85939 | 2958 ft | 162 kts | 237° |
| 2026-05-04 23:54 | -32.96544 | -60.87001 | 2964 ft | 163 kts | 236° |
| 2026-05-04 23:54 | -32.97260 | -60.88054 | 2966 ft | 164 kts | 234° |
| 2026-05-04 23:54 | -32.97990 | -60.89095 | 2967 ft | 164 kts | 234° |
| 2026-05-04 23:54 | -32.98719 | -60.90136 | 2967 ft | 164 kts | 234° |
| 2026-05-04 23:55 | -32.99169 | -60.91307 | 2944 ft | 153 kts | 274° |
| 2026-05-04 23:55 | -32.98694 | -60.92342 | 2948 ft | 145 kts | 327° |
| 2026-05-04 23:55 | -32.97023 | -60.91512 | 2960 ft | 153 kts | 52° |
| 2026-05-04 23:56 | -32.96433 | -60.90456 | 2970 ft | 154 kts | 52° |
| 2026-05-04 23:56 | -32.95842 | -60.89407 | 2973 ft | 155 kts | 52° |
| 2026-05-04 23:56 | -32.95242 | -60.88339 | 2975 ft | 155 kts | 52° |
| 2026-05-04 23:56 | -32.94807 | -60.87177 | 2946 ft | 161 kts | 83° |
| 2026-05-04 23:57 | -32.95269 | -60.85970 | 2946 ft | 168 kts | 137° |
| 2026-05-04 23:57 | -32.96369 | -60.85614 | 2943 ft | 168 kts | 190° |
| 2026-05-04 23:57 | -32.97278 | -60.86353 | 2950 ft | 159 kts | 242° |
| 2026-05-04 23:57 | -32.97749 | -60.87527 | 2964 ft | 158 kts | 246° |
| 2026-05-04 23:58 | -32.98238 | -60.88706 | 2969 ft | 159 kts | 249° |
| 2026-05-04 23:58 | -32.98731 | -60.89892 | 2971 ft | 161 kts | 245° |
| 2026-05-04 23:58 | -32.99366 | -60.90991 | 2954 ft | 159 kts | 243° |
| 2026-05-04 23:58 | -32.99405 | -60.92212 | 2941 ft | 148 kts | 298° |
| 2026-05-04 23:59 | -32.98615 | -60.92884 | 2943 ft | 145 kts | 351° |
| 2026-05-04 23:59 | -32.97702 | -60.92439 | 2940 ft | 152 kts | 43° |
| 2026-05-04 23:59 | -32.97088 | -60.91407 | 2959 ft | 154 kts | 51° |
| 2026-05-04 23:59 | -32.96470 | -60.90387 | 2964 ft | 154 kts | 49° |
| 2026-05-05 00:00 | -32.95826 | -60.89367 | 2967 ft | 154 kts | 49° |
| 2026-05-05 00:00 | -32.95390 | -60.88676 | 2960 ft | 155 kts | 49° |
| 2026-05-05 00:00 | -32.94598 | -60.87270 | 2941 ft | 158 kts | 67° |
| 2026-05-05 00:00 | -32.94792 | -60.85989 | 2933 ft | 167 kts | 122° |
| 2026-05-05 00:01 | -32.95785 | -60.85335 | 2937 ft | 168 kts | 176° |
| 2026-05-05 00:01 | -32.96717 | -60.85749 | 2922 ft | 121 kts | 236° |
| 2026-05-05 00:01 | -32.96990 | -60.86601 | 2942 ft | 120 kts | 249° |
| 2026-05-05 00:01 | -32.97379 | -60.87562 | 2964 ft | 137 kts | 253° |
| 2026-05-05 00:02 | -32.97854 | -60.88601 | 2960 ft | 151 kts | 234° |
| 2026-05-05 00:02 | -32.98537 | -60.89583 | 2969 ft | 155 kts | 238° |
| 2026-05-05 00:02 | -32.99154 | -60.90656 | 2967 ft | 159 kts | 240° |
| 2026-05-05 00:02 | -32.99607 | -60.91827 | 2951 ft | 155 kts | 261° |
| 2026-05-05 00:03 | -32.99844 | -60.93067 | 2949 ft | 156 kts | 261° |
| 2026-05-05 00:03 | -33.00091 | -60.94327 | 2958 ft | 156 kts | 261° |
| 2026-05-05 00:03 | -33.00339 | -60.95589 | 2960 ft | 156 kts | 261° |
| 2026-05-05 00:03 | -33.00586 | -60.96845 | 2952 ft | 156 kts | 261° |
| 2026-05-05 00:04 | -33.01155 | -60.97924 | 2931 ft | 162 kts | 217° |
| 2026-05-05 00:04 | -33.02257 | -60.98080 | 2936 ft | 162 kts | 163° |
| 2026-05-05 00:04 | -33.02892 | -60.97310 | 2911 ft | 111 kts | 95° |
| 2026-05-05 00:04 | -33.02594 | -60.96494 | 2956 ft | 118 kts | 49° |
| 2026-05-05 00:05 | -33.02114 | -60.95601 | 2969 ft | 136 kts | 52° |
| 2026-05-05 00:05 | -33.01566 | -60.94613 | 2968 ft | 148 kts | 52° |
| 2026-05-05 00:05 | -33.00988 | -60.93576 | 2967 ft | 152 kts | 52° |
| 2026-05-05 00:05 | -33.00395 | -60.92520 | 2965 ft | 154 kts | 52° |
| 2026-05-05 00:06 | -32.99796 | -60.91456 | 2967 ft | 154 kts | 52° |
| 2026-05-05 00:06 | -32.99123 | -60.90466 | 2960 ft | 154 kts | 45° |
| 2026-05-05 00:06 | -32.98412 | -60.89494 | 2968 ft | 159 kts | 45° |
| 2026-05-05 00:06 | -32.97688 | -60.88509 | 2969 ft | 161 kts | 45° |
| 2026-05-05 00:07 | -32.96897 | -60.87567 | 2963 ft | 161 kts | 38° |
| 2026-05-05 00:07 | -32.96043 | -60.86701 | 2964 ft | 162 kts | 37° |
| 2026-05-05 00:07 | -32.95254 | -60.85752 | 2948 ft | 164 kts | 52° |
| 2026-05-05 00:07 | -32.94638 | -60.84606 | 2948 ft | 164 kts | 52° |
| 2026-05-05 00:08 | -32.94228 | -60.83353 | 2948 ft | 169 kts | 87° |
| 2026-05-05 00:08 | -32.94743 | -60.82110 | 2969 ft | 175 kts | 134° |
| 2026-05-05 00:08 | -32.95596 | -60.81101 | 2960 ft | 172 kts | 116° |
| 2026-05-05 00:08 | -32.95648 | -60.79764 | 2966 ft | 163 kts | 64° |
| 2026-05-05 00:09 | -32.94840 | -60.78934 | 2968 ft | 156 kts | 14° |
| 2026-05-05 00:09 | -32.93823 | -60.79209 | 2969 ft | 157 kts | 323° |
| 2026-05-05 00:09 | -32.93365 | -60.80380 | 2974 ft | 164 kts | 279° |
| 2026-05-05 00:09 | -32.93548 | -60.81724 | 2965 ft | 170 kts | 247° |
| 2026-05-05 00:10 | -32.94290 | -60.82828 | 2981 ft | 172 kts | 232° |
| 2026-05-05 00:10 | -32.95070 | -60.83890 | 2985 ft | 173 kts | 232° |
| 2026-05-05 00:10 | -32.95801 | -60.85013 | 2961 ft | 170 kts | 248° |
| 2026-05-05 00:10 | -32.95765 | -60.86325 | 2966 ft | 159 kts | 300° |
| 2026-05-05 00:11 | -32.94911 | -60.87049 | 2968 ft | 154 kts | 350° |
| 2026-05-05 00:11 | -32.93918 | -60.86661 | 2973 ft | 157 kts | 37° |
| 2026-05-05 00:11 | -32.92961 | -60.86179 | 2968 ft | 153 kts | 359° |
| 2026-05-05 00:11 | -32.91906 | -60.86364 | 2984 ft | 155 kts | 351° |
| 2026-05-05 00:12 | -32.90842 | -60.86564 | 2989 ft | 155 kts | 351° |
| 2026-05-05 00:12 | -32.89775 | -60.86769 | 2992 ft | 156 kts | 351° |
| 2026-05-05 00:12 | -32.88722 | -60.86667 | 2965 ft | 157 kts | 26° |
| 2026-05-05 00:12 | -32.87926 | -60.85767 | 2981 ft | 159 kts | 44° |
| 2026-05-05 00:13 | -32.87184 | -60.84813 | 2985 ft | 160 kts | 44° |
| 2026-05-05 00:13 | -32.86426 | -60.83840 | 2987 ft | 161 kts | 44° |
| 2026-05-05 00:13 | -32.85663 | -60.82860 | 2989 ft | 161 kts | 44° |
| 2026-05-05 00:13 | -32.84901 | -60.81882 | 2989 ft | 161 kts | 44° |
| 2026-05-05 00:14 | -32.84138 | -60.80902 | 2989 ft | 161 kts | 44° |
| 2026-05-05 00:14 | -32.83324 | -60.80017 | 2963 ft | 157 kts | 24° |
| 2026-05-05 00:14 | -32.82271 | -60.80003 | 2979 ft | 154 kts | 347° |
| 2026-05-05 00:14 | -32.81231 | -60.80328 | 2983 ft | 155 kts | 346° |
| 2026-05-05 00:15 | -32.80184 | -60.80649 | 2983 ft | 156 kts | 348° |
| 2026-05-05 00:15 | -32.79113 | -60.80855 | 2984 ft | 157 kts | 352° |
| 2026-05-05 00:15 | -32.78037 | -60.81040 | 2986 ft | 156 kts | 352° |
| 2026-05-05 00:15 | -32.76957 | -60.81104 | 2979 ft | 155 kts | 355° |
| 2026-05-05 00:16 | -32.75882 | -60.81243 | 2979 ft | 156 kts | 353° |
| 2026-05-05 00:16 | -32.74806 | -60.81404 | 2979 ft | 156 kts | 354° |
| 2026-05-05 00:16 | -32.73732 | -60.81431 | 2957 ft | 156 kts | 13° |
| 2026-05-05 00:16 | -32.72958 | -60.80562 | 2967 ft | 162 kts | 64° |
| 2026-05-05 00:17 | -32.72819 | -60.79213 | 2980 ft | 167 kts | 86° |
| 2026-05-05 00:17 | -32.72871 | -60.77825 | 2983 ft | 169 kts | 89° |
| 2026-05-05 00:17 | -32.73009 | -60.76442 | 2964 ft | 172 kts | 105° |
| 2026-05-05 00:17 | -32.73841 | -60.75446 | 2966 ft | 177 kts | 155° |
| 2026-05-05 00:18 | -32.75039 | -60.75085 | 2978 ft | 178 kts | 172° |
| 2026-05-05 00:18 | -32.76273 | -60.75188 | 2979 ft | 179 kts | 189° |
| 2026-05-05 00:18 | -32.77488 | -60.75417 | 2982 ft | 180 kts | 191° |
| 2026-05-05 00:18 | -32.78739 | -60.75674 | 2857 ft | 185 kts | 191° |
| 2026-05-05 00:19 | -32.79983 | -60.75995 | 2707 ft | 177 kts | 198° |
| 2026-05-05 00:19 | -32.81142 | -60.76344 | 2554 ft | 165 kts | 195° |
| 2026-05-05 00:19 | -32.82202 | -60.76609 | 2391 ft | 149 kts | 192° |
| 2026-05-05 00:19 | -32.83135 | -60.76822 | 2216 ft | 124 kts | 189° |
| 2026-05-05 00:20 | -32.83926 | -60.76994 | 1947 ft | 107 kts | 189° |
| 2026-05-05 00:20 | -32.84622 | -60.77159 | 1633 ft | 98 kts | 189° |
| 2026-05-05 00:20 | -32.85287 | -60.77318 | 1272 ft | 96 kts | 188° |
| 2026-05-05 00:20 | -32.85946 | -60.77444 | 926 ft | 94 kts | 189° |
| 2026-05-05 00:21 | -32.86572 | -60.77608 | 688 ft | 93 kts | 190° |
| 2026-05-05 00:21 | -32.87212 | -60.77759 | 608 ft | 98 kts | 189° |
| 2026-05-05 00:21 | -32.87899 | -60.77916 | 510 ft | 101 kts | 188° |
| 2026-05-05 00:21 | -32.88574 | -60.78065 | 256 ft | 96 kts | 188° |
| 2026-05-05 00:22 | -32.89198 | -60.78206 | 108 ft | 85 kts | 189° |
| 2026-05-05 00:22 | -32.89732 | -60.78330 | 94 ft | 72 kts | 191° |
| 2026-05-05 00:22 | -32.90213 | -60.78440 | 95 ft | 71 kts | 189° |
| 2026-05-05 00:22 | -32.90667 | -60.78538 | 90 ft | 60 kts | 189° |
| 2026-05-05 00:23 | -32.91028 | -60.78505 | 91 ft | 48 kts | 157° |
| 2026-05-05 00:23 | -32.91281 | -60.78293 | 89 ft | 42 kts | 140° |
| 2026-05-05 00:23 | -32.91518 | -60.78197 | 89 ft | 39 kts | 202° |
| 2026-05-05 00:23 | -32.91749 | -60.78263 | 91 ft | 18 kts | 157° |
| 2026-05-05 00:24 | -32.91839 | -60.78236 | 89 ft | 10 kts | 110° |
| 2026-05-05 00:24 | -32.91821 | -60.78201 | 89 ft | 0 kts | 19° |
| 2026-05-05 00:24 | -32.91818 | -60.78200 | 89 ft | 0 kts | 21° |